Time;durP1;ratioP1;P1;durP2;ratioP2;P2;SDS_P1;SDS_P2;PMS_P1;PMS_P2;Temp;Humidity;BMP_temperature;BMP_pressure;BME280_temperature;BME280_humidity;BME280_pressure;Samples;Min_cycle;Max_cycle;Signal;HPM_P1;HPM_P2
2022/01/11 05:09:08;;;;;;;12.57;7.80;;;;;;;4.89;48.31;101329.66;5572595;31;80583;-57
2022/01/11 05:12:11;;;;;;;13.62;8.25;;;;;;;4.89;48.31;101329.66;5563990;32;33111;-57
2022/01/11 05:15:15;;;;;;;13.75;7.65;;;;;;;4.40;45.48;101341.94;5560262;32;34186;-57
2022/01/11 05:18:18;;;;;;;14.57;8.55;;;;;;;4.09;45.47;101340.06;5545693;32;33153;-57
2022/01/11 05:21:20;;;;;;;15.18;8.43;;;;;;;3.78;54.81;101350.66;5552104;32;34287;-57
2022/01/11 05:24:24;;;;;;;12.70;8.25;;;;;;;4.21;54.41;101349.00;5544848;32;33661;-57
2022/01/11 05:27:27;;;;;;;14.63;8.65;;;;;;;4.09;45.13;101348.03;5544969;32;34090;-57
2022/01/11 05:30:30;;;;;;;15.77;7.97;;;;;;;4.51;48.27;101360.84;5554233;32;34377;-57
2022/01/11 05:33:33;;;;;;;15.00;8.18;;;;;;;4.48;58.00;101362.09;5563031;32;33337;-57
2022/01/11 05:36:36;;;;;;;13.77;8.20;;;;;;;4.21;45.80;101358.81;5564217;32;34539;-57
2022/01/11 05:39:38;;;;;;;14.23;8.32;;;;;;;3.84;46.04;101371.03;5539900;32;34325;-57
2022/01/11 05:42:43;;;;;;;13.75;8.48;;;;;;;4.63;55.94;101381.16;5534750;32;33617;-57
2022/01/11 05:45:45;;;;;;;14.02;8.40;;;;;;;4.39;46.43;101387.25;5543748;32;33461;-57
2022/01/11 05:48:48;;;;;;;14.90;8.43;;;;;;;4.24;57.44;101387.56;5544761;32;33202;-57
2022/01/11 05:51:50;;;;;;;15.68;8.55;;;;;;;4.76;71.56;101390.88;5538162;32;34270;-57
2022/01/11 05:54:53;;;;;;;13.43;8.23;;;;;;;4.79;59.18;101394.94;5540454;32;33584;-57
2022/01/11 05:57:55;;;;;;;14.45;8.07;;;;;;;4.26;58.88;101403.28;5544804;32;33827;-57
2022/01/11 06:00:57;;;;;;;14.25;8.60;;;;;;;4.32;45.21;101405.88;5532276;32;33584;-57
2022/01/11 06:04:06;;;;;;;15.20;9.18;;;;;;;4.21;45.08;101407.38;5536694;32;32384;-57
2022/01/11 06:07:09;;;;;;;13.90;8.23;;;;;;;3.87;45.46;101413.84;5544672;32;33562;-57
2022/01/11 06:10:14;;;;;;;14.48;8.93;;;;;;;3.56;46.60;101421.72;5543684;32;33274;-57
2022/01/11 06:13:17;;;;;;;14.10;8.13;;;;;;;3.66;59.35;101428.22;5530482;32;32625;-57
2022/01/11 06:16:21;;;;;;;15.20;8.43;;;;;;;4.08;65.54;101431.34;5525284;32;33420;-57
2022/01/11 06:19:23;;;;;;;14.00;8.60;;;;;;;4.32;47.75;101424.47;5517174;32;33622;-57
2022/01/11 06:22:27;;;;;;;15.00;8.60;;;;;;;4.37;62.65;101445.06;5520219;32;34344;-57
2022/01/11 06:25:29;;;;;;;14.27;8.95;;;;;;;4.85;46.51;101441.91;5531254;32;33672;-57
2022/01/11 06:28:32;;;;;;;18.87;9.00;;;;;;;4.27;46.07;101444.69;5512162;32;34475;-57
2022/01/11 06:31:35;;;;;;;15.90;8.57;;;;;;;4.17;52.35;101453.13;5515080;32;34500;-57
2022/01/11 06:34:38;;;;;;;15.48;9.27;;;;;;;3.83;48.36;101463.03;5531640;32;33678;-57
2022/01/11 06:37:41;;;;;;;13.48;8.52;;;;;;;3.61;47.46;101470.47;5531141;32;34454;-57
2022/01/11 06:40:44;;;;;;;21.77;8.50;;;;;;;3.63;52.64;101476.34;5524933;32;34403;-57
2022/01/11 06:43:46;;;;;;;13.73;8.05;;;;;;;4.50;56.34;101484.81;5518635;32;33552;-57
2022/01/11 06:46:49;;;;;;;13.95;7.93;;;;;;;3.70;47.96;101490.41;5517240;32;31864;-57
2022/01/11 06:49:51;;;;;;;14.70;8.68;;;;;;;3.28;46.58;101492.53;5525826;32;32592;-57
2022/01/11 06:52:54;;;;;;;20.20;8.82;;;;;;;3.47;62.09;101498.81;5531266;32;33689;-57
2022/01/11 06:55:57;;;;;;;22.80;9.20;;;;;;;3.57;47.79;101503.69;5531233;32;33324;-57
2022/01/11 06:58:59;;;;;;;14.30;8.70;;;;;;;4.32;66.07;101503.28;5523192;32;33688;-57
2022/01/11 07:02:02;;;;;;;16.12;8.95;;;;;;;4.06;45.93;101501.56;5511718;32;33507;-57
2022/01/11 07:05:07;;;;;;;18.15;9.27;;;;;;;3.75;54.28;101508.37;5492382;32;34240;-57
2022/01/11 07:08:10;;;;;;;20.88;9.05;;;;;;;3.71;46.67;101507.16;5520831;32;33750;-57
2022/01/11 07:11:13;;;;;;;16.25;8.98;;;;;;;3.56;48.20;101507.38;5512057;32;33540;-57
2022/01/11 07:14:15;;;;;;;17.12;9.65;;;;;;;3.37;46.82;101518.81;5510929;32;34356;-57
2022/01/11 07:17:23;;;;;;;15.45;9.02;;;;;;;3.52;54.00;101520.22;5513371;32;34441;-57
2022/01/11 07:20:26;;;;;;;14.55;8.23;;;;;;;3.76;59.94;101520.59;5492515;32;33898;-57
2022/01/11 07:23:28;;;;;;;14.40;9.40;;;;;;;3.68;46.87;101524.28;5498565;32;34433;-57
2022/01/11 07:26:33;;;;;;;14.82;8.48;;;;;;;3.23;47.34;101516.16;5511564;32;33750;-57
2022/01/11 07:29:35;;;;;;;15.77;8.85;;;;;;;3.37;51.42;101530.22;5511247;32;33715;-57
2022/01/11 07:32:37;;;;;;;14.90;8.90;;;;;;;3.93;61.34;101534.25;5511337;32;33199;-57
2022/01/11 07:35:40;;;;;;;14.15;8.82;;;;;;;3.74;47.49;101530.59;5512908;32;32579;-57
2022/01/11 07:38:42;;;;;;;14.82;8.82;;;;;;;3.98;51.53;101539.75;5529260;32;33696;-57
2022/01/11 07:41:46;;;;;;;16.27;8.88;;;;;;;4.02;52.21;101538.31;5530527;32;33578;-57
2022/01/11 07:44:51;;;;;;;22.83;9.63;;;;;;;3.61;45.75;101536.75;5517831;32;32814;-57
2022/01/11 07:47:54;;;;;;;14.93;8.75;;;;;;;3.66;53.02;101542.25;5514394;32;34170;-57
2022/01/11 07:50:57;;;;;;;14.65;8.73;;;;;;;4.30;51.75;101547.81;5511626;32;32976;-57
2022/01/11 07:53:59;;;;;;;14.30;8.63;;;;;;;3.62;46.69;101546.31;5510502;32;34208;-57
2022/01/11 07:57:02;;;;;;;18.55;10.73;;;;;;;3.59;55.53;101551.22;5510052;32;32012;-57
2022/01/11 08:00:07;;;;;;;16.17;8.82;;;;;;;3.95;63.93;101559.53;5511536;32;34097;-57
2022/01/11 08:03:17;;;;;;;14.77;9.38;;;;;;;4.33;47.91;101560.66;5512761;32;34350;-57
2022/01/11 08:06:21;;;;;;;17.02;9.65;;;;;;;4.14;47.55;101557.88;5512484;32;31697;-57
2022/01/11 08:09:23;;;;;;;15.05;9.00;;;;;;;4.13;54.37;101564.19;5511805;32;33494;-57
2022/01/11 08:12:26;;;;;;;19.70;9.38;;;;;;;4.75;52.40;101569.06;5511909;32;32433;-57
2022/01/11 08:15:29;;;;;;;16.83;9.18;;;;;;;5.42;67.43;101570.28;5520218;32;33236;-57
2022/01/11 08:18:32;;;;;;;16.40;9.52;;;;;;;5.41;50.00;101560.69;5523331;32;33504;-57
2022/01/11 08:21:36;;;;;;;18.35;9.90;;;;;;;5.09;67.56;101568.66;5510942;32;34039;-57
2022/01/11 08:24:39;;;;;;;16.75;10.10;;;;;;;4.97;60.03;101572.22;5510435;32;34476;-57
2022/01/11 08:27:41;;;;;;;16.85;9.90;;;;;;;5.49;58.11;101572.87;5510734;32;34140;-57
2022/01/11 08:30:44;;;;;;;16.48;9.77;;;;;;;5.39;48.98;101578.69;5511372;32;33595;-57
2022/01/11 08:33:47;;;;;;;16.73;9.80;;;;;;;4.96;43.79;101574.06;5510846;32;33615;-57
2022/01/11 08:36:54;;;;;;;16.40;10.15;;;;;;;4.27;48.54;101588.84;5527955;32;33327;-57
2022/01/11 08:39:57;;;;;;;14.80;9.25;;;;;;;4.30;44.74;101579.66;5508307;32;33500;-57
2022/01/11 08:43:03;;;;;;;19.00;10.88;;;;;;;4.50;50.38;101596.34;5508146;32;33132;-57
2022/01/11 08:46:06;;;;;;;17.33;10.00;;;;;;;4.85;68.38;101588.84;5523439;32;34035;-57
2022/01/11 08:49:11;;;;;;;16.30;10.50;;;;;;;4.60;48.71;101596.75;5529631;32;34147;-57
2022/01/11 08:52:13;;;;;;;19.85;10.25;;;;;;;4.50;43.90;101591.03;5528571;32;34642;-57
2022/01/11 08:55:16;;;;;;;17.17;10.70;;;;;;;4.62;50.14;101593.84;5510803;32;34237;-57
2022/01/11 08:58:20;;;;;;;18.15;11.30;;;;;;;4.94;47.17;101584.91;5510723;32;34172;-57
2022/01/11 09:01:26;;;;;;;15.07;9.75;;;;;;;5.00;52.66;101590.38;5510455;32;33150;-57
2022/01/11 09:04:29;;;;;;;17.57;10.53;;;;;;;5.21;53.58;101592.72;5524800;32;34348;-57
2022/01/11 09:07:32;;;;;;;16.15;10.05;;;;;;;5.22;49.40;101602.31;5529626;32;33460;-57
2022/01/11 09:10:34;;;;;;;16.48;9.77;;;;;;;4.81;53.01;101602.78;5520003;32;33359;-57
2022/01/11 09:13:37;;;;;;;17.62;10.98;;;;;;;5.55;60.76;101606.59;5523457;32;33186;-57
2022/01/11 09:16:40;;;;;;;20.52;10.90;;;;;;;5.89;49.81;101603.47;5510279;32;32797;-57
2022/01/11 09:19:46;;;;;;;16.17;9.98;;;;;;;5.23;49.60;101595.16;5509384;32;33228;-57
2022/01/11 09:22:49;;;;;;;17.67;11.57;;;;;;;5.29;55.35;101599.63;5514633;32;33648;-57
2022/01/11 09:25:51;;;;;;;19.73;10.38;;;;;;;5.35;42.10;101596.09;5511369;32;33150;-57
2022/01/11 09:28:54;;;;;;;15.73;9.70;;;;;;;5.23;47.23;101597.81;5507127;32;33279;-57
2022/01/11 09:32:00;;;;;;;17.73;9.40;;;;;;;5.39;42.85;101591.97;5509531;32;33274;-57
2022/01/11 09:35:05;;;;;;;16.65;9.15;;;;;;;5.18;41.17;101590.50;5511778;32;33575;-57
2022/01/11 09:38:08;;;;;;;15.93;8.55;;;;;;;5.05;48.59;101590.56;5516586;32;33252;-57
2022/01/11 09:41:11;;;;;;;15.20;10.20;;;;;;;5.42;43.05;101608.31;5514454;32;33227;-57
2022/01/11 09:44:16;;;;;;;16.95;9.52;;;;;;;5.23;48.52;101600.47;5509401;32;33474;-57
2022/01/11 09:47:19;;;;;;;19.23;9.13;;;;;;;5.49;42.80;101596.81;5509353;32;33668;-57
2022/01/11 09:50:22;;;;;;;16.37;9.00;;;;;;;5.34;46.59;101597.16;5490504;32;33221;-57
2022/01/11 09:53:26;;;;;;;27.58;10.05;;;;;;;5.31;44.80;101595.72;5506168;32;33850;-57
2022/01/11 09:56:29;;;;;;;14.45;8.45;;;;;;;5.12;43.72;101588.69;5516951;32;32822;-57
2022/01/11 09:59:32;;;;;;;22.58;9.40;;;;;;;4.51;42.47;101589.22;5511316;32;33395;-57
2022/01/11 10:02:36;;;;;;;16.67;9.38;;;;;;;4.03;42.97;101584.22;5512019;32;34778;-57
2022/01/11 10:05:41;;;;;;;13.07;8.15;;;;;;;4.26;52.20;101597.84;5507321;32;33269;-57
2022/01/11 10:08:43;;;;;;;16.33;9.73;;;;;;;5.15;64.06;101591.72;5510635;32;33792;-57
2022/01/11 10:11:52;;;;;;;13.10;8.52;;;;;;;5.37;46.89;101586.09;5511196;32;34369;-57
2022/01/11 10:14:58;;;;;;;13.70;8.38;;;;;;;5.22;42.50;101572.28;5515731;32;33693;-57
2022/01/11 10:18:01;;;;;;;15.07;8.90;;;;;;;4.88;50.63;101582.28;5511596;32;34073;-57
2022/01/11 10:21:50;;;;;;;16.40;8.32;;;;;;;5.01;44.76;101578.75;5516092;32;34412;-57
2022/01/11 10:24:54;;;;;;;15.70;8.82;;;;;;;5.33;44.45;101568.91;5507548;32;34347;-57
2022/01/11 10:28:04;;;;;;;14.82;7.97;;;;;;;4.97;47.86;101570.41;5510763;32;33477;-57
2022/01/11 10:31:07;;;;;;;13.43;8.00;;;;;;;5.14;54.07;101576.81;5505952;32;33703;-57
2022/01/11 10:34:12;;;;;;;14.82;7.82;;;;;;;5.31;53.40;101576.31;5512447;32;34439;-57
2022/01/11 10:37:27;;;;;;;12.23;8.13;;;;;;;4.82;44.47;101588.44;5518929;32;33307;-57
2022/01/11 10:40:45;;;;;;;14.95;8.50;;;;;;;5.05;46.09;101587.91;5516376;32;33665;-57
2022/01/11 10:43:49;;;;;;;15.63;7.93;;;;;;;4.74;55.96;101575.44;5523577;32;34403;-57
2022/01/11 10:46:52;;;;;;;12.43;7.53;;;;;;;4.82;45.30;101583.94;5511160;32;34337;-57
2022/01/11 10:49:59;;;;;;;13.62;7.50;;;;;;;5.02;44.99;101581.19;5510115;32;33377;-57
2022/01/11 10:53:05;;;;;;;12.93;7.60;;;;;;;4.81;43.75;101577.00;5511840;32;31984;-57
2022/01/11 10:56:09;;;;;;;13.25;7.87;;;;;;;5.24;58.62;101583.53;5518834;32;33513;-57
2022/01/11 10:59:18;;;;;;;13.25;7.80;;;;;;;5.11;42.76;101574.59;5511006;32;34267;-57
2022/01/11 11:02:26;;;;;;;11.50;7.40;;;;;;;5.21;48.33;101574.12;5492483;32;34250;-57
2022/01/11 11:05:35;;;;;;;13.18;7.80;;;;;;;5.53;42.23;101576.72;5505176;32;33521;-57
2022/01/11 11:08:41;;;;;;;12.93;7.45;;;;;;;4.99;42.71;101573.63;5511303;32;32675;-57
2022/01/11 11:11:43;;;;;;;14.82;7.97;;;;;;;5.29;50.45;101573.84;5522345;32;33595;-57
2022/01/11 11:14:56;;;;;;;12.07;7.07;;;;;;;5.42;42.12;101578.25;5525646;32;31766;-57
2022/01/11 11:17:59;;;;;;;12.10;7.32;;;;;;;5.80;44.35;101577.34;5511623;32;31798;-57
2022/01/11 11:21:38;;;;;;;15.05;8.05;;;;;;;5.96;42.94;101579.47;5511601;32;32505;-57
2022/01/11 11:24:40;;;;;;;14.73;7.35;;;;;;;5.78;45.33;101574.06;5501014;32;34004;-57
2022/01/11 11:27:42;;;;;;;14.45;8.55;;;;;;;6.00;42.38;101566.53;5514216;32;33322;-57
2022/01/11 11:30:48;;;;;;;14.23;8.00;;;;;;;5.78;44.02;101568.75;5510976;32;32982;-57
2022/01/11 11:33:51;;;;;;;12.35;7.68;;;;;;;6.32;45.31;101564.53;5511290;32;34207;-57
2022/01/11 11:36:55;;;;;;;13.43;7.85;;;;;;;6.54;49.29;101571.03;5511704;32;33674;-57
2022/01/11 11:40:03;;;;;;;12.73;8.10;;;;;;;6.26;43.65;101570.75;5505480;32;33721;-57
2022/01/11 11:43:06;;;;;;;13.95;8.25;;;;;;;5.98;44.08;101558.75;5509789;32;33983;-57
2022/01/11 11:46:08;;;;;;;13.48;7.87;;;;;;;6.06;42.88;101558.47;5512154;32;33923;-57
2022/01/11 11:49:16;;;;;;;13.35;7.68;;;;;;;5.86;47.64;101566.63;5515014;32;34363;-57
2022/01/11 11:52:27;;;;;;;12.32;7.35;;;;;;;5.83;46.63;101566.25;5513766;32;33479;-57
2022/01/11 11:55:34;;;;;;;13.10;8.30;;;;;;;6.12;54.69;101567.41;5510300;32;33663;-57
2022/01/11 11:58:42;;;;;;;12.93;7.72;;;;;;;5.56;42.40;101563.84;5510932;32;32427;-57
2022/01/11 12:01:46;;;;;;;13.65;8.32;;;;;;;5.52;47.40;101564.47;5510397;32;33800;-57
2022/01/11 12:04:52;;;;;;;14.10;7.62;;;;;;;6.07;45.04;101568.09;5511417;32;34048;-57
2022/01/11 12:07:55;;;;;;;12.75;7.28;;;;;;;5.86;43.50;101560.47;5510468;32;33602;-57
2022/01/11 12:11:03;;;;;;;14.40;7.37;;;;;;;5.35;42.29;101561.53;5499657;32;33637;-57
2022/01/11 12:14:06;;;;;;;12.68;7.72;;;;;;;5.49;44.13;101567.56;5507511;32;33874;-58
2022/01/11 12:17:11;;;;;;;12.63;7.50;;;;;;;5.49;41.82;101567.56;5509575;32;33877;-57
2022/01/11 12:20:39;;;;;;;12.32;7.43;;;;;;;5.69;42.79;101562.87;5510110;32;33627;-57
2022/01/11 12:23:43;;;;;;;14.13;6.62;;;;;;;5.84;51.99;101570.53;5509664;32;33626;-57
2022/01/11 12:26:57;;;;;;;12.35;7.82;;;;;;;5.96;43.77;101562.66;5512655;32;33650;-57
2022/01/11 12:30:07;;;;;;;13.07;7.43;;;;;;;5.65;41.96;101559.03;5496848;32;33645;-57
2022/01/11 12:33:13;;;;;;;13.27;8.05;;;;;;;6.08;47.28;101564.38;5510563;32;33214;-57
2022/01/11 12:36:15;;;;;;;12.65;7.53;;;;;;;6.15;46.05;101571.47;5510822;32;33734;-57
2022/01/11 12:39:17;;;;;;;12.80;7.60;;;;;;;6.33;40.99;101564.31;5509676;32;33643;-57
2022/01/11 12:42:27;;;;;;;11.52;6.68;;;;;;;6.10;42.26;101575.63;5509658;32;33606;-57
2022/01/11 12:46:01;;;;;;;12.70;6.97;;;;;;;5.90;42.74;101580.31;5512278;32;33673;-57
2022/01/11 12:49:05;;;;;;;13.98;8.10;;;;;;;5.99;49.62;101570.22;5510163;32;33725;-57
2022/01/11 12:52:09;;;;;;;14.82;7.62;;;;;;;5.93;43.68;101576.41;5508970;32;33628;-57
2022/01/11 12:55:12;;;;;;;14.32;7.55;;;;;;;5.75;42.62;101567.34;5510819;32;33753;-57
2022/01/11 12:58:17;;;;;;;12.52;6.85;;;;;;;6.51;44.60;101571.47;5510342;32;34305;-57
2022/01/11 13:01:20;;;;;;;12.70;7.55;;;;;;;6.55;53.11;101569.97;5510884;32;34389;-57
2022/01/11 13:04:42;;;;;;;10.75;6.25;;;;;;;6.91;58.01;101578.94;5510455;32;33740;-57
2022/01/11 13:07:50;;;;;;;14.07;6.85;;;;;;;6.38;39.39;101576.16;5509012;32;33697;-57
2022/01/11 13:10:52;;;;;;;13.55;7.60;;;;;;;6.43;48.30;101579.78;5510535;32;34266;-57
2022/01/11 13:17:54;;;;;;;12.48;7.80;;;;;;;6.34;41.36;101581.09;5510097;32;34382;-57
2022/01/11 13:21:21;;;;;;;13.32;6.90;;;;;;;6.55;44.27;101583.31;5510470;32;34296;-57
2022/01/11 13:24:25;;;;;;;13.98;7.53;;;;;;;6.66;45.23;101579.09;5510183;32;34488;-58
2022/01/11 13:27:27;;;;;;;10.23;6.97;;;;;;;6.77;40.49;101580.19;5510406;32;33847;-57
2022/01/11 13:30:45;;;;;;;11.40;7.22;;;;;;;6.83;49.22;101587.28;5511581;32;34390;-57
2022/01/11 13:33:54;;;;;;;11.57;7.35;;;;;;;6.72;47.57;101580.88;5507549;32;34387;-57
2022/01/11 13:36:57;;;;;;;11.90;7.32;;;;;;;6.45;46.27;101582.22;5511685;32;34935;-57
2022/01/11 13:39:59;;;;;;;12.80;7.35;;;;;;;6.53;41.04;101587.25;5505362;32;34458;-57
2022/01/11 13:43:07;;;;;;;11.12;7.43;;;;;;;6.61;46.80;101591.44;5512319;32;33737;-57
2022/01/11 13:46:15;;;;;;;12.93;7.07;;;;;;;6.69;40.59;101599.97;5512130;32;33814;-57
2022/01/11 13:49:30;;;;;;;12.95;7.20;;;;;;;6.51;38.94;101586.66;5512500;32;33648;-57
2022/01/11 13:52:32;;;;;;;12.70;7.18;;;;;;;6.15;40.71;101587.47;5512077;32;33281;-57
2022/01/11 13:55:34;;;;;;;11.55;7.28;;;;;;;5.95;39.48;101593.78;5512467;32;33899;-57
2022/01/11 13:58:46;;;;;;;12.90;7.37;;;;;;;6.00;40.14;101596.63;5511987;32;33816;-57
2022/01/11 14:02:20;;;;;;;13.30;7.65;;;;;;;5.76;40.01;101584.94;5512011;32;33646;-57
2022/01/11 14:05:29;;;;;;;11.32;6.57;;;;;;;5.79;42.26;101589.81;5512032;32;32175;-57
2022/01/11 14:08:32;;;;;;;12.18;6.45;;;;;;;5.71;42.05;101589.28;5512180;32;34367;-57
2022/01/11 14:11:37;;;;;;;11.38;6.25;;;;;;;6.21;40.35;101595.38;5510749;32;34327;-57
2022/01/11 14:14:39;;;;;;;10.85;6.53;;;;;;;6.04;42.25;101586.34;5512094;32;34280;-57
2022/01/11 14:17:43;;;;;;;11.73;7.05;;;;;;;5.96;40.33;101599.94;5512186;32;33924;-57
2022/01/11 14:20:46;;;;;;;15.18;7.20;;;;;;;5.81;40.96;101608.22;5511316;32;32154;-57
2022/01/11 14:23:52;;;;;;;9.88;6.68;;;;;;;6.02;41.59;101609.69;5511942;32;33652;-57
2022/01/11 14:26:54;;;;;;;11.60;6.23;;;;;;;6.42;46.88;101606.63;5512146;32;33761;-57
2022/01/11 14:30:12;;;;;;;13.40;6.10;;;;;;;6.37;38.87;101607.31;5511457;32;33807;-57
2022/01/11 14:33:24;;;;;;;10.02;5.62;;;;;;;6.38;38.33;101605.44;5510881;32;33670;-57
2022/01/11 14:36:29;;;;;;;14.15;7.30;;;;;;;7.09;51.93;101623.44;5511934;32;33784;-57
2022/01/11 14:39:33;;;;;;;14.13;7.68;;;;;;;7.23;40.29;101619.53;5511450;32;33800;-57
2022/01/11 14:42:36;;;;;;;9.43;6.05;;;;;;;6.90;38.37;101627.97;5511322;32;33290;-57
2022/01/11 14:45:46;;;;;;;12.40;5.97;;;;;;;6.61;37.44;101623.44;5511095;32;33789;-57
2022/01/11 14:48:49;;;;;;;13.23;6.10;;;;;;;6.42;38.59;101634.06;5511100;32;33701;-57
2022/01/11 14:51:54;;;;;;;10.50;6.43;;;;;;;6.52;40.48;101631.72;5511582;32;33888;-57
2022/01/11 14:54:59;;;;;;;8.85;5.10;;;;;;;6.54;38.46;101636.81;5492943;32;33511;-57
2022/01/11 14:58:02;;;;;;;12.77;5.65;;;;;;;6.66;38.45;101632.38;5493041;32;34233;-57
2022/01/11 15:01:09;;;;;;;9.80;5.25;;;;;;;6.38;40.75;101638.22;5492722;32;34432;-57
2022/01/11 15:04:15;;;;;;;11.55;5.30;;;;;;;6.30;39.35;101647.31;5505987;32;33736;-58
2022/01/11 15:07:19;;;;;;;10.43;5.87;;;;;;;6.30;38.41;101635.84;5511554;32;33783;-57
2022/01/11 15:10:22;;;;;;;8.45;4.93;;;;;;;6.11;41.89;101643.00;5511701;32;33773;-57
2022/01/11 15:13:24;;;;;;;9.07;5.05;;;;;;;6.11;38.30;101635.00;5510903;32;34923;-57
2022/01/11 15:16:28;;;;;;;7.62;4.90;;;;;;;6.18;41.47;101645.59;5511570;32;33786;-57
2022/01/11 15:19:31;;;;;;;7.78;4.82;;;;;;;6.35;38.94;101654.63;5510807;32;33672;-57
2022/01/11 15:22:33;;;;;;;10.98;5.18;;;;;;;6.68;38.63;101645.47;5511181;32;33757;-57
2022/01/11 15:25:40;;;;;;;11.50;4.68;;;;;;;6.32;38.63;101652.41;5511141;32;33738;-58
2022/01/11 15:28:54;;;;;;;8.77;4.90;;;;;;;6.35;38.83;101657.31;5511519;32;34210;-57
2022/01/11 15:32:00;;;;;;;8.50;4.65;;;;;;;6.22;39.72;101660.09;5511856;32;34498;-57
2022/01/11 15:35:04;;;;;;;7.32;4.78;;;;;;;6.02;38.93;101657.63;5510662;32;33793;-57
2022/01/11 15:38:06;;;;;;;10.38;4.68;;;;;;;6.13;43.65;101656.91;5511713;32;33728;-57
2022/01/11 15:41:13;;;;;;;10.73;5.00;;;;;;;6.39;40.36;101665.66;5511850;32;34421;-57
2022/01/11 15:44:16;;;;;;;7.60;4.45;;;;;;;6.28;38.38;101662.69;5510931;32;33677;-57
2022/01/11 15:47:18;;;;;;;8.63;4.53;;;;;;;6.35;43.96;101665.28;5510274;32;34349;-57
2022/01/11 15:50:20;;;;;;;10.20;4.72;;;;;;;6.31;45.85;101669.44;5511376;32;33728;-57
2022/01/11 15:53:24;;;;;;;8.27;4.68;;;;;;;6.50;53.82;101664.94;5510960;32;33620;-58
2022/01/11 15:56:28;;;;;;;10.25;4.72;;;;;;;6.83;41.30;101668.06;5511589;32;34478;-57
2022/01/11 15:59:30;;;;;;;9.07;5.00;;;;;;;6.23;40.33;101665.22;5510625;32;33796;-57
2022/01/11 16:02:32;;;;;;;8.15;4.82;;;;;;;6.04;40.14;101675.00;5511121;32;33830;-57
2022/01/11 16:05:35;;;;;;;8.80;4.95;;;;;;;6.08;39.36;101678.84;5511168;32;33773;-57
2022/01/11 16:08:38;;;;;;;7.10;4.45;;;;;;;6.47;39.00;101681.37;5511140;32;34257;-57
2022/01/11 16:11:40;;;;;;;8.52;5.43;;;;;;;6.34;45.91;101682.31;5511182;32;34359;-57
2022/01/11 16:14:42;;;;;;;8.48;5.15;;;;;;;6.21;39.04;101683.25;5511354;32;33626;-57
2022/01/11 16:17:46;;;;;;;8.48;5.12;;;;;;;6.09;43.09;101680.50;5511222;32;33614;-57
2022/01/11 16:20:48;;;;;;;8.75;4.93;;;;;;;5.84;39.92;101692.97;5511264;32;34314;-57
2022/01/11 16:23:50;;;;;;;11.95;4.85;;;;;;;6.38;46.81;101694.16;5511272;32;34389;-57
2022/01/11 16:26:54;;;;;;;9.35;5.35;;;;;;;6.49;58.49;101693.44;5511412;32;34226;-57
2022/01/11 16:30:13;;;;;;;10.20;5.40;;;;;;;6.31;48.97;101691.56;5511130;32;33680;-57
2022/01/11 16:33:17;;;;;;;12.37;4.43;;;;;;;6.42;42.05;101705.19;5510735;32;34231;-57
2022/01/11 16:36:20;;;;;;;8.18;5.22;;;;;;;5.78;39.74;101707.94;5511738;32;33754;-57
2022/01/11 16:39:35;;;;;;;9.02;5.28;;;;;;;5.93;40.46;101706.81;5511263;32;33801;-57
2022/01/11 16:42:40;;;;;;;12.60;6.57;;;;;;;5.65;41.48;101716.00;5511232;32;33767;-57
2022/01/11 16:45:46;;;;;;;13.75;6.97;;;;;;;5.52;43.80;101714.22;5510807;32;33400;-57
